sensor_id;sensor_type;location;lat;lon;timestamp;temperature;humidity
5560;DHT22;2803;47.916;8.074;2022-07-04T00:02:08;21.10;99.90
5560;DHT22;2803;47.916;8.074;2022-07-04T00:04:34;21.20;99.90
5560;DHT22;2803;47.916;8.074;2022-07-04T00:07:01;21.20;99.90
5560;DHT22;2803;47.916;8.074;2022-07-04T00:09:28;20.70;99.90
5560;DHT22;2803;47.916;8.074;2022-07-04T00:11:55;21.00;99.90
5560;DHT22;2803;47.916;8.074;2022-07-04T00:14:22;21.10;99.90
5560;DHT22;2803;47.916;8.074;2022-07-04T00:16:49;21.00;99.90
5560;DHT22;2803;47.916;8.074;2022-07-04T00:19:15;21.20;99.90
5560;DHT22;2803;47.916;8.074;2022-07-04T00:21:42;20.90;99.90
5560;DHT22;2803;47.916;8.074;2022-07-04T00:24:09;20.80;99.90
5560;DHT22;2803;47.916;8.074;2022-07-04T00:26:36;21.10;99.90
5560;DHT22;2803;47.916;8.074;2022-07-04T00:29:03;21.30;99.90
5560;DHT22;2803;47.916;8.074;2022-07-04T00:31:30;21.10;99.90
5560;DHT22;2803;47.916;8.074;2022-07-04T00:33:57;21.10;99.90
5560;DHT22;2803;47.916;8.074;2022-07-04T00:36:23;21.30;99.90
5560;DHT22;2803;47.916;8.074;2022-07-04T00:38:50;21.40;99.90
5560;DHT22;2803;47.916;8.074;2022-07-04T00:41:16;21.50;99.90
5560;DHT22;2803;47.916;8.074;2022-07-04T00:43:43;21.50;99.90
5560;DHT22;2803;47.916;8.074;2022-07-04T00:46:11;21.60;99.90
5560;DHT22;2803;47.916;8.074;2022-07-04T00:48:37;21.60;99.90
5560;DHT22;2803;47.916;8.074;2022-07-04T00:51:04;21.20;99.90
5560;DHT22;2803;47.916;8.074;2022-07-04T00:53:31;21.40;99.90
5560;DHT22;2803;47.916;8.074;2022-07-04T00:55:58;21.50;99.90
5560;DHT22;2803;47.916;8.074;2022-07-04T00:58:24;21.50;99.90
5560;DHT22;2803;47.916;8.074;2022-07-04T01:00:51;21.50;99.90
5560;DHT22;2803;47.916;8.074;2022-07-04T01:03:19;21.40;99.90
5560;DHT22;2803;47.916;8.074;2022-07-04T01:05:46;21.50;99.90
5560;DHT22;2803;47.916;8.074;2022-07-04T01:08:13;21.60;99.90
5560;DHT22;2803;47.916;8.074;2022-07-04T01:10:40;21.70;99.90
5560;DHT22;2803;47.916;8.074;2022-07-04T01:13:07;21.70;99.90
5560;DHT22;2803;47.916;8.074;2022-07-04T01:15:33;21.80;99.90
5560;DHT22;2803;47.916;8.074;2022-07-04T01:18:00;21.70;99.90
5560;DHT22;2803;47.916;8.074;2022-07-04T01:20:34;21.50;99.90
5560;DHT22;2803;47.916;8.074;2022-07-04T01:23:00;21.30;99.90
5560;DHT22;2803;47.916;8.074;2022-07-04T01:25:27;21.30;99.90
5560;DHT22;2803;47.916;8.074;2022-07-04T01:27:54;21.50;99.90
5560;DHT22;2803;47.916;8.074;2022-07-04T01:30:20;21.50;99.90
5560;DHT22;2803;47.916;8.074;2022-07-04T01:32:47;21.50;99.90
5560;DHT22;2803;47.916;8.074;2022-07-04T01:35:13;21.40;99.90
5560;DHT22;2803;47.916;8.074;2022-07-04T01:37:41;21.50;99.90
5560;DHT22;2803;47.916;8.074;2022-07-04T01:40:09;21.50;99.90
5560;DHT22;2803;47.916;8.074;2022-07-04T01:42:37;21.60;99.90
5560;DHT22;2803;47.916;8.074;2022-07-04T01:45:05;21.50;99.90
5560;DHT22;2803;47.916;8.074;2022-07-04T01:47:32;21.60;99.90
5560;DHT22;2803;47.916;8.074;2022-07-04T01:49:58;21.70;99.90
5560;DHT22;2803;47.916;8.074;2022-07-04T01:52:25;21.70;99.90
5560;DHT22;2803;47.916;8.074;2022-07-04T01:54:53;21.60;99.90
5560;DHT22;2803;47.916;8.074;2022-07-04T01:57:20;21.40;99.90
5560;DHT22;2803;47.916;8.074;2022-07-04T01:59:46;21.50;99.90
5560;DHT22;2803;47.916;8.074;2022-07-04T02:02:27;21.50;99.90
5560;DHT22;2803;47.916;8.074;2022-07-04T02:04:54;21.60;99.90
5560;DHT22;2803;47.916;8.074;2022-07-04T02:07:21;21.20;99.90
5560;DHT22;2803;47.916;8.074;2022-07-04T02:09:48;21.00;99.90
5560;DHT22;2803;47.916;8.074;2022-07-04T02:12:16;21.30;99.90
5560;DHT22;2803;47.916;8.074;2022-07-04T02:14:56;21.40;99.90
5560;DHT22;2803;47.916;8.074;2022-07-04T02:17:23;21.50;99.90
5560;DHT22;2803;47.916;8.074;2022-07-04T02:19:50;21.40;99.90
5560;DHT22;2803;47.916;8.074;2022-07-04T02:22:16;21.50;99.90
5560;DHT22;2803;47.916;8.074;2022-07-04T02:24:43;21.60;99.90
5560;DHT22;2803;47.916;8.074;2022-07-04T02:27:10;21.20;99.90
5560;DHT22;2803;47.916;8.074;2022-07-04T02:29:38;21.30;99.90
5560;DHT22;2803;47.916;8.074;2022-07-04T02:32:05;21.50;99.90
5560;DHT22;2803;47.916;8.074;2022-07-04T02:34:32;21.50;99.90
5560;DHT22;2803;47.916;8.074;2022-07-04T02:36:59;21.40;99.90
5560;DHT22;2803;47.916;8.074;2022-07-04T02:39:25;21.50;99.90
5560;DHT22;2803;47.916;8.074;2022-07-04T02:41:52;21.20;99.90
5560;DHT22;2803;47.916;8.074;2022-07-04T02:44:18;20.90;99.90
5560;DHT22;2803;47.916;8.074;2022-07-04T02:46:46;21.20;99.90
5560;DHT22;2803;47.916;8.074;2022-07-04T02:49:13;21.50;99.90
5560;DHT22;2803;47.916;8.074;2022-07-04T02:51:40;21.40;99.90
5560;DHT22;2803;47.916;8.074;2022-07-04T02:54:07;21.40;99.90
5560;DHT22;2803;47.916;8.074;2022-07-04T02:56:33;21.20;99.90
5560;DHT22;2803;47.916;8.074;2022-07-04T02:59:00;20.90;99.90
5560;DHT22;2803;47.916;8.074;2022-07-04T03:01:27;21.00;99.90
5560;DHT22;2803;47.916;8.074;2022-07-04T03:03:55;21.00;99.90
5560;DHT22;2803;47.916;8.074;2022-07-04T03:06:21;20.20;99.90
5560;DHT22;2803;47.916;8.074;2022-07-04T03:08:48;20.50;99.90
5560;DHT22;2803;47.916;8.074;2022-07-04T03:11:14;20.80;99.90
5560;DHT22;2803;47.916;8.074;2022-07-04T03:13:41;21.20;99.90
5560;DHT22;2803;47.916;8.074;2022-07-04T03:16:08;21.30;99.90
5560;DHT22;2803;47.916;8.074;2022-07-04T03:18:35;20.80;99.90
5560;DHT22;2803;47.916;8.074;2022-07-04T03:21:03;21.10;99.90
5560;DHT22;2803;47.916;8.074;2022-07-04T03:23:30;21.30;99.90
5560;DHT22;2803;47.916;8.074;2022-07-04T03:25:57;21.40;99.90
5560;DHT22;2803;47.916;8.074;2022-07-04T03:28:24;21.50;99.90
5560;DHT22;2803;47.916;8.074;2022-07-04T03:30:50;21.60;99.90
5560;DHT22;2803;47.916;8.074;2022-07-04T03:33:17;21.40;99.90
5560;DHT22;2803;47.916;8.074;2022-07-04T03:35:44;21.20;99.90
5560;DHT22;2803;47.916;8.074;2022-07-04T03:38:11;21.10;99.90
5560;DHT22;2803;47.916;8.074;2022-07-04T03:40:38;21.20;99.90
5560;DHT22;2803;47.916;8.074;2022-07-04T03:43:05;21.20;99.90
5560;DHT22;2803;47.916;8.074;2022-07-04T03:45:32;21.30;99.90
5560;DHT22;2803;47.916;8.074;2022-07-04T03:47:59;21.40;99.90
5560;DHT22;2803;47.916;8.074;2022-07-04T03:50:27;21.40;99.90
5560;DHT22;2803;47.916;8.074;2022-07-04T03:52:54;21.50;99.90
5560;DHT22;2803;47.916;8.074;2022-07-04T03:55:22;21.50;99.90
5560;DHT22;2803;47.916;8.074;2022-07-04T03:57:48;21.40;99.90
5560;DHT22;2803;47.916;8.074;2022-07-04T04:00:15;21.60;99.90
5560;DHT22;2803;47.916;8.074;2022-07-04T04:02:42;21.50;99.90
5560;DHT22;2803;47.916;8.074;2022-07-04T04:05:08;21.60;99.90
5560;DHT22;2803;47.916;8.074;2022-07-04T04:07:49;21.50;99.90
5560;DHT22;2803;47.916;8.074;2022-07-04T04:10:16;21.60;99.90
5560;DHT22;2803;47.916;8.074;2022-07-04T04:12:44;21.60;99.90
5560;DHT22;2803;47.916;8.074;2022-07-04T04:15:10;21.60;99.90
5560;DHT22;2803;47.916;8.074;2022-07-04T04:17:37;21.50;99.90
5560;DHT22;2803;47.916;8.074;2022-07-04T04:20:04;21.50;99.90
5560;DHT22;2803;47.916;8.074;2022-07-04T04:22:31;21.50;99.90
5560;DHT22;2803;47.916;8.074;2022-07-04T04:24:58;21.40;99.90
5560;DHT22;2803;47.916;8.074;2022-07-04T04:27:24;21.40;99.90
5560;DHT22;2803;47.916;8.074;2022-07-04T04:29:52;21.50;99.90
5560;DHT22;2803;47.916;8.074;2022-07-04T04:32:19;21.60;99.90
5560;DHT22;2803;47.916;8.074;2022-07-04T04:34:47;21.50;99.90
5560;DHT22;2803;47.916;8.074;2022-07-04T04:37:15;21.60;99.90
5560;DHT22;2803;47.916;8.074;2022-07-04T04:39:42;21.60;99.90
5560;DHT22;2803;47.916;8.074;2022-07-04T04:42:08;21.60;99.90
5560;DHT22;2803;47.916;8.074;2022-07-04T04:44:36;21.60;99.90
5560;DHT22;2803;47.916;8.074;2022-07-04T04:47:04;21.70;99.90
5560;DHT22;2803;47.916;8.074;2022-07-04T04:49:30;21.60;99.90
5560;DHT22;2803;47.916;8.074;2022-07-04T04:51:57;21.70;99.90
5560;DHT22;2803;47.916;8.074;2022-07-04T04:54:23;21.70;99.90
5560;DHT22;2803;47.916;8.074;2022-07-04T04:56:50;21.70;99.90
5560;DHT22;2803;47.916;8.074;2022-07-04T04:59:17;21.80;99.90
5560;DHT22;2803;47.916;8.074;2022-07-04T05:01:43;21.80;99.90
5560;DHT22;2803;47.916;8.074;2022-07-04T05:04:11;21.70;99.90
5560;DHT22;2803;47.916;8.074;2022-07-04T05:06:40;21.70;99.90
5560;DHT22;2803;47.916;8.074;2022-07-04T05:09:06;21.80;99.90
5560;DHT22;2803;47.916;8.074;2022-07-04T05:11:33;21.80;99.90
5560;DHT22;2803;47.916;8.074;2022-07-04T05:13:59;21.80;99.90
5560;DHT22;2803;47.916;8.074;2022-07-04T05:16:27;21.40;99.90
5560;DHT22;2803;47.916;8.074;2022-07-04T05:18:53;21.50;99.90
5560;DHT22;2803;47.916;8.074;2022-07-04T05:21:21;21.60;99.90
5560;DHT22;2803;47.916;8.074;2022-07-04T05:23:48;21.60;99.90
5560;DHT22;2803;47.916;8.074;2022-07-04T05:26:14;21.30;99.90
5560;DHT22;2803;47.916;8.074;2022-07-04T05:28:41;21.40;99.90
5560;DHT22;2803;47.916;8.074;2022-07-04T05:31:08;21.80;99.90
5560;DHT22;2803;47.916;8.074;2022-07-04T05:33:34;21.70;99.90
5560;DHT22;2803;47.916;8.074;2022-07-04T05:36:01;21.40;99.90
5560;DHT22;2803;47.916;8.074;2022-07-04T05:38:29;21.50;99.90
5560;DHT22;2803;47.916;8.074;2022-07-04T05:40:55;21.60;99.90
5560;DHT22;2803;47.916;8.074;2022-07-04T05:43:22;21.70;99.90
5560;DHT22;2803;47.916;8.074;2022-07-04T05:45:50;21.80;99.90
5560;DHT22;2803;47.916;8.074;2022-07-04T05:48:17;21.60;99.90
5560;DHT22;2803;47.916;8.074;2022-07-04T05:50:45;21.60;99.90
5560;DHT22;2803;47.916;8.074;2022-07-04T05:53:11;21.80;99.90
5560;DHT22;2803;47.916;8.074;2022-07-04T05:55:40;21.80;99.90
5560;DHT22;2803;47.916;8.074;2022-07-04T05:58:06;21.80;99.90
5560;DHT22;2803;47.916;8.074;2022-07-04T06:00:33;21.90;99.90
5560;DHT22;2803;47.916;8.074;2022-07-04T06:02:59;21.90;99.90
5560;DHT22;2803;47.916;8.074;2022-07-04T06:05:26;22.10;99.90
5560;DHT22;2803;47.916;8.074;2022-07-04T06:07:53;22.20;99.90
5560;DHT22;2803;47.916;8.074;2022-07-04T06:10:19;22.20;99.90
5560;DHT22;2803;47.916;8.074;2022-07-04T06:12:47;22.10;99.90
5560;DHT22;2803;47.916;8.074;2022-07-04T06:15:14;22.10;99.90
5560;DHT22;2803;47.916;8.074;2022-07-04T06:17:41;22.20;99.90
5560;DHT22;2803;47.916;8.074;2022-07-04T06:20:08;22.00;99.90
5560;DHT22;2803;47.916;8.074;2022-07-04T06:22:39;22.20;99.90
5560;DHT22;2803;47.916;8.074;2022-07-04T06:25:07;22.30;99.90
5560;DHT22;2803;47.916;8.074;2022-07-04T06:27:36;22.40;99.90
5560;DHT22;2803;47.916;8.074;2022-07-04T06:30:04;22.40;99.90
5560;DHT22;2803;47.916;8.074;2022-07-04T06:32:41;22.40;99.90
5560;DHT22;2803;47.916;8.074;2022-07-04T06:35:08;22.50;99.90
5560;DHT22;2803;47.916;8.074;2022-07-04T06:37:49;22.50;99.90
5560;DHT22;2803;47.916;8.074;2022-07-04T06:40:16;22.50;99.90
5560;DHT22;2803;47.916;8.074;2022-07-04T06:42:43;22.60;99.90
5560;DHT22;2803;47.916;8.074;2022-07-04T06:45:11;22.70;99.90
5560;DHT22;2803;47.916;8.074;2022-07-04T06:47:37;22.50;99.90
5560;DHT22;2803;47.916;8.074;2022-07-04T06:50:06;22.50;99.90
5560;DHT22;2803;47.916;8.074;2022-07-04T06:52:33;22.50;99.90
5560;DHT22;2803;47.916;8.074;2022-07-04T06:55:00;22.00;99.90
5560;DHT22;2803;47.916;8.074;2022-07-04T06:57:26;22.30;99.90
5560;DHT22;2803;47.916;8.074;2022-07-04T06:59:53;22.70;99.90
5560;DHT22;2803;47.916;8.074;2022-07-04T07:02:21;23.10;99.90
5560;DHT22;2803;47.916;8.074;2022-07-04T07:04:48;22.90;99.90
5560;DHT22;2803;47.916;8.074;2022-07-04T07:07:15;22.90;99.90
5560;DHT22;2803;47.916;8.074;2022-07-04T07:09:41;23.20;99.90
5560;DHT22;2803;47.916;8.074;2022-07-04T07:12:09;23.50;99.90
5560;DHT22;2803;47.916;8.074;2022-07-04T07:14:35;23.10;99.90
5560;DHT22;2803;47.916;8.074;2022-07-04T07:17:02;22.80;99.90
5560;DHT22;2803;47.916;8.074;2022-07-04T07:19:30;22.70;99.90
5560;DHT22;2803;47.916;8.074;2022-07-04T07:21:57;22.50;99.90
5560;DHT22;2803;47.916;8.074;2022-07-04T07:24:24;23.00;99.90
5560;DHT22;2803;47.916;8.074;2022-07-04T07:26:51;23.00;99.90
5560;DHT22;2803;47.916;8.074;2022-07-04T07:29:18;23.10;99.90
5560;DHT22;2803;47.916;8.074;2022-07-04T07:31:45;22.90;99.90
5560;DHT22;2803;47.916;8.074;2022-07-04T07:34:11;22.50;99.90
5560;DHT22;2803;47.916;8.074;2022-07-04T07:36:39;22.50;99.90
5560;DHT22;2803;47.916;8.074;2022-07-04T07:39:06;22.50;99.90
5560;DHT22;2803;47.916;8.074;2022-07-04T07:41:32;22.10;99.90
5560;DHT22;2803;47.916;8.074;2022-07-04T07:43:59;22.40;99.90
5560;DHT22;2803;47.916;8.074;2022-07-04T07:46:25;22.80;99.90
5560;DHT22;2803;47.916;8.074;2022-07-04T07:48:52;22.70;99.90
5560;DHT22;2803;47.916;8.074;2022-07-04T07:51:19;22.60;99.90
5560;DHT22;2803;47.916;8.074;2022-07-04T07:53:47;22.60;99.90
5560;DHT22;2803;47.916;8.074;2022-07-04T07:56:15;22.50;99.90
5560;DHT22;2803;47.916;8.074;2022-07-04T07:58:41;22.20;99.90
5560;DHT22;2803;47.916;8.074;2022-07-04T08:01:08;22.70;99.90
5560;DHT22;2803;47.916;8.074;2022-07-04T08:03:36;22.90;99.90
5560;DHT22;2803;47.916;8.074;2022-07-04T08:06:17;23.30;99.90
5560;DHT22;2803;47.916;8.074;2022-07-04T08:08:44;22.90;99.90
5560;DHT22;2803;47.916;8.074;2022-07-04T08:11:12;22.90;99.90
5560;DHT22;2803;47.916;8.074;2022-07-04T08:13:39;22.80;99.90
5560;DHT22;2803;47.916;8.074;2022-07-04T08:16:07;22.90;99.90
5560;DHT22;2803;47.916;8.074;2022-07-04T08:18:33;22.80;99.90
5560;DHT22;2803;47.916;8.074;2022-07-04T08:21:01;22.40;99.90
5560;DHT22;2803;47.916;8.074;2022-07-04T08:23:29;22.70;99.90
5560;DHT22;2803;47.916;8.074;2022-07-04T08:25:55;22.40;99.90
5560;DHT22;2803;47.916;8.074;2022-07-04T08:28:24;22.00;99.90
5560;DHT22;2803;47.916;8.074;2022-07-04T08:30:50;22.20;99.90
5560;DHT22;2803;47.916;8.074;2022-07-04T08:33:17;22.40;99.90
5560;DHT22;2803;47.916;8.074;2022-07-04T08:35:44;23.00;99.90
5560;DHT22;2803;47.916;8.074;2022-07-04T08:38:11;23.10;99.90
5560;DHT22;2803;47.916;8.074;2022-07-04T08:40:37;23.30;99.90
5560;DHT22;2803;47.916;8.074;2022-07-04T08:43:06;23.20;99.90
5560;DHT22;2803;47.916;8.074;2022-07-04T08:45:34;23.80;99.90
5560;DHT22;2803;47.916;8.074;2022-07-04T08:48:02;23.50;99.90
5560;DHT22;2803;47.916;8.074;2022-07-04T08:50:31;23.50;99.90
5560;DHT22;2803;47.916;8.074;2022-07-04T08:52:59;23.60;99.90
5560;DHT22;2803;47.916;8.074;2022-07-04T08:55:28;23.60;99.90
5560;DHT22;2803;47.916;8.074;2022-07-04T08:58:10;23.40;99.90
5560;DHT22;2803;47.916;8.074;2022-07-04T09:00:52;23.70;99.90
5560;DHT22;2803;47.916;8.074;2022-07-04T09:03:20;23.50;99.90
5560;DHT22;2803;47.916;8.074;2022-07-04T09:05:47;23.50;99.90
5560;DHT22;2803;47.916;8.074;2022-07-04T09:08:14;23.70;99.90
5560;DHT22;2803;47.916;8.074;2022-07-04T09:10:40;23.90;99.90
5560;DHT22;2803;47.916;8.074;2022-07-04T09:13:08;23.60;99.90
5560;DHT22;2803;47.916;8.074;2022-07-04T09:15:35;23.30;99.90
5560;DHT22;2803;47.916;8.074;2022-07-04T09:18:04;23.60;99.90
5560;DHT22;2803;47.916;8.074;2022-07-04T09:20:32;23.70;99.90
5560;DHT22;2803;47.916;8.074;2022-07-04T09:22:59;23.70;99.90
5560;DHT22;2803;47.916;8.074;2022-07-04T09:25:26;24.00;99.90
5560;DHT22;2803;47.916;8.074;2022-07-04T09:27:54;24.00;99.90
5560;DHT22;2803;47.916;8.074;2022-07-04T09:30:24;24.30;99.90
5560;DHT22;2803;47.916;8.074;2022-07-04T09:32:52;24.30;99.90
5560;DHT22;2803;47.916;8.074;2022-07-04T09:35:27;24.50;99.90
5560;DHT22;2803;47.916;8.074;2022-07-04T09:37:56;24.70;99.90
5560;DHT22;2803;47.916;8.074;2022-07-04T09:40:26;24.90;99.90
5560;DHT22;2803;47.916;8.074;2022-07-04T09:42:53;24.80;99.90
5560;DHT22;2803;47.916;8.074;2022-07-04T09:45:21;24.90;99.90
5560;DHT22;2803;47.916;8.074;2022-07-04T09:47:51;25.00;99.90
5560;DHT22;2803;47.916;8.074;2022-07-04T09:50:20;25.20;99.90
5560;DHT22;2803;47.916;8.074;2022-07-04T09:52:51;25.00;99.90
5560;DHT22;2803;47.916;8.074;2022-07-04T09:55:22;24.90;99.90
5560;DHT22;2803;47.916;8.074;2022-07-04T09:57:50;24.80;99.90
5560;DHT22;2803;47.916;8.074;2022-07-04T10:00:19;25.00;99.90
5560;DHT22;2803;47.916;8.074;2022-07-04T10:02:46;25.70;99.90
5560;DHT22;2803;47.916;8.074;2022-07-04T10:05:19;26.20;99.90
5560;DHT22;2803;47.916;8.074;2022-07-04T10:07:46;26.00;99.90
5560;DHT22;2803;47.916;8.074;2022-07-04T10:10:25;26.00;99.90
5560;DHT22;2803;47.916;8.074;2022-07-04T10:12:53;26.00;99.90
5560;DHT22;2803;47.916;8.074;2022-07-04T10:15:21;26.10;99.90
5560;DHT22;2803;47.916;8.074;2022-07-04T10:17:48;26.20;99.90
5560;DHT22;2803;47.916;8.074;2022-07-04T10:20:15;26.70;99.90
5560;DHT22;2803;47.916;8.074;2022-07-04T10:22:42;26.50;99.90
5560;DHT22;2803;47.916;8.074;2022-07-04T10:25:10;26.40;99.90
5560;DHT22;2803;47.916;8.074;2022-07-04T10:27:38;26.30;99.90
5560;DHT22;2803;47.916;8.074;2022-07-04T10:30:07;26.10;99.90
5560;DHT22;2803;47.916;8.074;2022-07-04T10:32:36;25.90;99.90
5560;DHT22;2803;47.916;8.074;2022-07-04T10:35:03;26.20;99.90
5560;DHT22;2803;47.916;8.074;2022-07-04T10:40:43;26.70;99.90
5560;DHT22;2803;47.916;8.074;2022-07-04T10:46:25;26.30;99.90
5560;DHT22;2803;47.916;8.074;2022-07-04T10:48:53;26.10;99.90
5560;DHT22;2803;47.916;8.074;2022-07-04T10:51:36;26.30;99.90
5560;DHT22;2803;47.916;8.074;2022-07-04T10:54:06;26.10;99.90
5560;DHT22;2803;47.916;8.074;2022-07-04T10:56:38;26.40;99.90
5560;DHT22;2803;47.916;8.074;2022-07-04T10:59:10;26.90;99.90
5560;DHT22;2803;47.916;8.074;2022-07-04T11:01:39;27.00;99.90
5560;DHT22;2803;47.916;8.074;2022-07-04T11:04:10;26.90;99.90
5560;DHT22;2803;47.916;8.074;2022-07-04T11:06:52;27.40;99.90
5560;DHT22;2803;47.916;8.074;2022-07-04T11:09:20;27.40;99.90
5560;DHT22;2803;47.916;8.074;2022-07-04T11:11:48;28.10;99.90
5560;DHT22;2803;47.916;8.074;2022-07-04T11:14:32;28.10;99.90
5560;DHT22;2803;47.916;8.074;2022-07-04T11:17:00;28.30;99.90
5560;DHT22;2803;47.916;8.074;2022-07-04T11:19:27;28.50;99.90
5560;DHT22;2803;47.916;8.074;2022-07-04T11:21:54;28.40;99.90
5560;DHT22;2803;47.916;8.074;2022-07-04T11:24:21;28.30;99.90
5560;DHT22;2803;47.916;8.074;2022-07-04T11:26:48;29.10;99.90
5560;DHT22;2803;47.916;8.074;2022-07-04T11:29:15;29.20;99.20
5560;DHT22;2803;47.916;8.074;2022-07-04T11:31:43;28.70;99.60
5560;DHT22;2803;47.916;8.074;2022-07-04T11:34:12;28.90;99.70
5560;DHT22;2803;47.916;8.074;2022-07-04T11:36:39;28.80;99.60
5560;DHT22;2803;47.916;8.074;2022-07-04T11:39:07;28.80;99.30
5560;DHT22;2803;47.916;8.074;2022-07-04T11:41:35;29.00;99.60
5560;DHT22;2803;47.916;8.074;2022-07-04T11:44:17;29.30;99.30
5560;DHT22;2803;47.916;8.074;2022-07-04T11:47:03;29.80;98.70
5560;DHT22;2803;47.916;8.074;2022-07-04T11:49:31;29.80;97.90
5560;DHT22;2803;47.916;8.074;2022-07-04T11:51:58;29.60;98.10
5560;DHT22;2803;47.916;8.074;2022-07-04T11:54:25;28.30;98.90
5560;DHT22;2803;47.916;8.074;2022-07-04T11:56:52;27.90;99.30
5560;DHT22;2803;47.916;8.074;2022-07-04T11:59:18;27.20;99.90
5560;DHT22;2803;47.916;8.074;2022-07-04T12:01:45;27.20;99.90
5560;DHT22;2803;47.916;8.074;2022-07-04T12:04:14;27.10;99.90
5560;DHT22;2803;47.916;8.074;2022-07-04T12:06:43;27.30;99.90
5560;DHT22;2803;47.916;8.074;2022-07-04T12:09:10;26.80;99.90
5560;DHT22;2803;47.916;8.074;2022-07-04T12:11:53;26.90;99.90
5560;DHT22;2803;47.916;8.074;2022-07-04T12:14:20;26.70;99.90
5560;DHT22;2803;47.916;8.074;2022-07-04T12:16:47;26.50;99.90
5560;DHT22;2803;47.916;8.074;2022-07-04T12:19:14;26.60;99.90
5560;DHT22;2803;47.916;8.074;2022-07-04T12:21:43;26.60;99.90
5560;DHT22;2803;47.916;8.074;2022-07-04T12:24:10;26.50;99.90
5560;DHT22;2803;47.916;8.074;2022-07-04T12:26:45;27.10;99.90
5560;DHT22;2803;47.916;8.074;2022-07-04T12:29:20;27.00;99.90
5560;DHT22;2803;47.916;8.074;2022-07-04T12:31:51;26.60;99.90
5560;DHT22;2803;47.916;8.074;2022-07-04T12:34:19;26.30;99.90
5560;DHT22;2803;47.916;8.074;2022-07-04T12:36:52;26.40;99.90
5560;DHT22;2803;47.916;8.074;2022-07-04T12:39:28;26.40;99.90
5560;DHT22;2803;47.916;8.074;2022-07-04T12:42:04;26.70;99.90
5560;DHT22;2803;47.916;8.074;2022-07-04T12:44:31;27.00;99.90
5560;DHT22;2803;47.916;8.074;2022-07-04T12:46:58;27.40;99.90
5560;DHT22;2803;47.916;8.074;2022-07-04T12:49:25;27.50;99.90
5560;DHT22;2803;47.916;8.074;2022-07-04T12:52:04;27.60;99.90
5560;DHT22;2803;47.916;8.074;2022-07-04T12:54:30;27.20;99.90
5560;DHT22;2803;47.916;8.074;2022-07-04T12:57:05;26.50;99.90
5560;DHT22;2803;47.916;8.074;2022-07-04T12:59:32;26.80;99.90
5560;DHT22;2803;47.916;8.074;2022-07-04T13:01:58;26.70;99.90
5560;DHT22;2803;47.916;8.074;2022-07-04T13:04:25;26.30;99.90
5560;DHT22;2803;47.916;8.074;2022-07-04T13:06:53;26.10;99.90
5560;DHT22;2803;47.916;8.074;2022-07-04T13:09:20;26.70;99.90
5560;DHT22;2803;47.916;8.074;2022-07-04T13:11:48;27.40;98.80
5560;DHT22;2803;47.916;8.074;2022-07-04T13:14:29;28.60;98.60
5560;DHT22;2803;47.916;8.074;2022-07-04T13:16:57;29.70;97.00
5560;DHT22;2803;47.916;8.074;2022-07-04T13:19:24;29.90;95.50
5560;DHT22;2803;47.916;8.074;2022-07-04T13:21:52;29.40;95.30
5560;DHT22;2803;47.916;8.074;2022-07-04T13:24:19;28.80;95.60
5560;DHT22;2803;47.916;8.074;2022-07-04T13:26:46;28.30;96.40
5560;DHT22;2803;47.916;8.074;2022-07-04T13:29:13;27.90;97.10
5560;DHT22;2803;47.916;8.074;2022-07-04T13:31:40;27.60;98.00
5560;DHT22;2803;47.916;8.074;2022-07-04T13:34:06;27.30;98.70
5560;DHT22;2803;47.916;8.074;2022-07-04T13:36:33;27.40;98.50
5560;DHT22;2803;47.916;8.074;2022-07-04T13:39:01;28.20;97.70
5560;DHT22;2803;47.916;8.074;2022-07-04T13:41:30;28.60;97.20
5560;DHT22;2803;47.916;8.074;2022-07-04T13:43:57;28.70;96.40
5560;DHT22;2803;47.916;8.074;2022-07-04T13:46:23;27.70;97.40
5560;DHT22;2803;47.916;8.074;2022-07-04T13:48:50;27.90;97.40
5560;DHT22;2803;47.916;8.074;2022-07-04T13:51:17;28.40;97.50
5560;DHT22;2803;47.916;8.074;2022-07-04T13:53:43;28.40;97.10
5560;DHT22;2803;47.916;8.074;2022-07-04T13:56:11;28.50;96.80
5560;DHT22;2803;47.916;8.074;2022-07-04T13:58:42;28.40;96.10
5560;DHT22;2803;47.916;8.074;2022-07-04T14:01:09;28.20;95.60
5560;DHT22;2803;47.916;8.074;2022-07-04T14:03:36;28.00;95.90
5560;DHT22;2803;47.916;8.074;2022-07-04T14:06:03;27.80;95.90
5560;DHT22;2803;47.916;8.074;2022-07-04T14:08:29;27.90;95.70
5560;DHT22;2803;47.916;8.074;2022-07-04T14:10:56;27.90;96.40
5560;DHT22;2803;47.916;8.074;2022-07-04T14:13:24;27.10;95.90
5560;DHT22;2803;47.916;8.074;2022-07-04T14:15:51;26.70;96.60
5560;DHT22;2803;47.916;8.074;2022-07-04T14:18:18;26.50;97.40
5560;DHT22;2803;47.916;8.074;2022-07-04T14:20:45;26.60;96.80
5560;DHT22;2803;47.916;8.074;2022-07-04T14:23:12;26.00;97.90
5560;DHT22;2803;47.916;8.074;2022-07-04T14:25:39;26.20;97.60
5560;DHT22;2803;47.916;8.074;2022-07-04T14:28:05;25.90;98.50
5560;DHT22;2803;47.916;8.074;2022-07-04T14:30:33;25.70;98.80
5560;DHT22;2803;47.916;8.074;2022-07-04T14:33:00;26.00;98.70
5560;DHT22;2803;47.916;8.074;2022-07-04T14:35:26;25.90;98.60
5560;DHT22;2803;47.916;8.074;2022-07-04T14:37:53;26.10;98.90
5560;DHT22;2803;47.916;8.074;2022-07-04T14:40:21;26.10;98.30
5560;DHT22;2803;47.916;8.074;2022-07-04T14:42:48;25.90;99.00
5560;DHT22;2803;47.916;8.074;2022-07-04T14:45:14;26.10;99.10
5560;DHT22;2803;47.916;8.074;2022-07-04T14:47:42;25.90;99.10
5560;DHT22;2803;47.916;8.074;2022-07-04T14:50:09;25.30;99.90
5560;DHT22;2803;47.916;8.074;2022-07-04T14:52:36;25.50;99.90
5560;DHT22;2803;47.916;8.074;2022-07-04T14:55:03;25.80;99.90
5560;DHT22;2803;47.916;8.074;2022-07-04T14:57:30;25.60;99.90
5560;DHT22;2803;47.916;8.074;2022-07-04T14:59:56;25.70;99.90
5560;DHT22;2803;47.916;8.074;2022-07-04T15:02:23;26.00;99.90
5560;DHT22;2803;47.916;8.074;2022-07-04T15:04:51;25.80;99.90
5560;DHT22;2803;47.916;8.074;2022-07-04T15:07:17;25.70;99.90
5560;DHT22;2803;47.916;8.074;2022-07-04T15:09:44;25.60;99.90
5560;DHT22;2803;47.916;8.074;2022-07-04T15:12:10;25.60;99.90
5560;DHT22;2803;47.916;8.074;2022-07-04T15:14:37;25.50;99.90
5560;DHT22;2803;47.916;8.074;2022-07-04T15:17:04;25.60;99.90
5560;DHT22;2803;47.916;8.074;2022-07-04T15:19:30;26.00;99.90
5560;DHT22;2803;47.916;8.074;2022-07-04T15:22:18;25.80;99.90
5560;DHT22;2803;47.916;8.074;2022-07-04T15:24:59;25.70;99.90
5560;DHT22;2803;47.916;8.074;2022-07-04T15:27:25;25.90;99.90
5560;DHT22;2803;47.916;8.074;2022-07-04T15:29:52;25.90;99.90
5560;DHT22;2803;47.916;8.074;2022-07-04T15:32:18;26.40;99.90
5560;DHT22;2803;47.916;8.074;2022-07-04T15:34:45;26.30;99.90
5560;DHT22;2803;47.916;8.074;2022-07-04T15:37:12;26.20;99.90
5560;DHT22;2803;47.916;8.074;2022-07-04T15:39:39;26.30;99.90
5560;DHT22;2803;47.916;8.074;2022-07-04T15:42:06;26.40;99.90
5560;DHT22;2803;47.916;8.074;2022-07-04T15:44:33;26.30;99.90
5560;DHT22;2803;47.916;8.074;2022-07-04T15:47:00;26.20;99.90
5560;DHT22;2803;47.916;8.074;2022-07-04T15:49:40;26.30;99.90
5560;DHT22;2803;47.916;8.074;2022-07-04T15:52:07;26.40;99.90
5560;DHT22;2803;47.916;8.074;2022-07-04T15:54:34;26.40;99.90
5560;DHT22;2803;47.916;8.074;2022-07-04T15:57:02;26.50;99.90
5560;DHT22;2803;47.916;8.074;2022-07-04T15:59:30;26.40;99.90
5560;DHT22;2803;47.916;8.074;2022-07-04T16:01:56;26.10;99.10
5560;DHT22;2803;47.916;8.074;2022-07-04T16:04:23;26.20;99.90
5560;DHT22;2803;47.916;8.074;2022-07-04T16:06:49;26.00;99.90
5560;DHT22;2803;47.916;8.074;2022-07-04T16:09:16;26.00;99.90
5560;DHT22;2803;47.916;8.074;2022-07-04T16:11:43;26.10;99.90
5560;DHT22;2803;47.916;8.074;2022-07-04T16:14:13;26.10;99.90